createdAt,value
2018-08-03T00:00:49.838Z,87.30
2018-08-03T00:03:18.473Z,87.70
2018-08-03T00:05:47.369Z,88.20
2018-08-03T00:08:16.106Z,88.40
2018-08-03T00:10:44.797Z,88.80
2018-08-03T00:13:13.418Z,88.80
2018-08-03T00:15:42.253Z,88.60
2018-08-03T00:18:10.918Z,88.50
2018-08-03T00:20:39.849Z,88.30
2018-08-03T00:23:08.692Z,88.80
2018-08-03T00:25:37.293Z,89.30
2018-08-03T00:28:06.703Z,89.50
2018-08-03T00:30:35.421Z,89.70
2018-08-03T00:33:04.130Z,90.10
2018-08-03T00:35:32.895Z,90.10
2018-08-03T00:38:01.774Z,90.10
2018-08-03T00:40:30.950Z,90.20
2018-08-03T00:42:59.629Z,90.20
2018-08-03T00:45:28.441Z,90.20
2018-08-03T00:47:57.195Z,89.90
2018-08-03T00:50:25.910Z,89.80
2018-08-03T00:52:54.901Z,89.90
2018-08-03T00:55:23.530Z,90.10
2018-08-03T00:57:52.282Z,90.30
2018-08-03T01:00:20.975Z,90.40
2018-08-03T01:02:49.859Z,90.30
2018-08-03T01:08:04.820Z,90.20
2018-08-03T01:10:33.497Z,90.20
2018-08-03T01:13:02.471Z,90.10
2018-08-03T01:15:31.126Z,90.30
2018-08-03T01:17:59.795Z,90.40
2018-08-03T01:20:28.961Z,90.50
2018-08-03T01:22:57.624Z,90.50
2018-08-03T01:25:26.336Z,90.30
2018-08-03T01:27:54.979Z,90.30
2018-08-03T01:30:23.605Z,90.10
2018-08-03T01:32:52.449Z,90.10
2018-08-03T01:35:21.229Z,90.10
2018-08-03T01:37:50.272Z,90.10
2018-08-03T01:40:18.988Z,90.00
2018-08-03T01:42:47.801Z,90.10
2018-08-03T01:45:16.579Z,90.00
2018-08-03T01:47:45.665Z,90.20
2018-08-03T01:50:14.317Z,90.20
2018-08-03T01:52:43.195Z,90.20
2018-08-03T01:55:11.894Z,90.20
2018-08-03T02:02:37.124Z,90.80
2018-08-03T02:05:06.064Z,90.80
2018-08-03T02:07:34.673Z,90.90
2018-08-03T02:10:03.685Z,90.80
2018-08-03T02:12:32.301Z,90.80
2018-08-03T02:15:00.993Z,90.70
2018-08-03T02:17:29.709Z,90.70
2018-08-03T02:19:58.385Z,90.80
2018-08-03T02:22:27.088Z,90.90
2018-08-03T02:24:56.321Z,91.00
2018-08-03T02:27:25.023Z,91.00
2018-08-03T02:29:54.005Z,91.20
2018-08-03T02:32:22.974Z,91.60
2018-08-03T02:34:51.721Z,91.60
2018-08-03T02:37:21.389Z,91.60
2018-08-03T02:39:50.169Z,91.90
2018-08-03T02:42:19.105Z,91.80
2018-08-03T02:44:47.824Z,91.80
2018-08-03T02:47:16.889Z,92.00
2018-08-03T02:49:45.640Z,92.30
2018-08-03T02:52:14.379Z,92.20
2018-08-03T02:54:43.273Z,92.10
2018-08-03T02:57:11.851Z,91.90
2018-08-03T02:59:40.714Z,91.60
2018-08-03T03:02:09.429Z,91.60
2018-08-03T03:04:38.096Z,91.50
2018-08-03T03:07:06.897Z,91.40
2018-08-03T03:09:35.582Z,91.20
2018-08-03T03:12:04.329Z,91.10
2018-08-03T03:14:33.042Z,91.00
2018-08-03T03:17:01.953Z,91.10
2018-08-03T03:19:30.683Z,91.20
2018-08-03T03:21:59.537Z,91.40
2018-08-03T03:24:28.486Z,91.50
2018-08-03T03:26:57.099Z,91.20
2018-08-03T03:29:25.995Z,91.40
2018-08-03T03:31:54.866Z,91.70
2018-08-03T03:34:23.793Z,92.00
2018-08-03T03:36:52.466Z,92.00
2018-08-03T03:39:21.241Z,92.00
2018-08-03T03:41:49.878Z,91.80
2018-08-03T03:44:19.061Z,91.70
2018-08-03T03:46:47.716Z,91.50
2018-08-03T03:49:16.366Z,91.40
2018-08-03T03:51:45.039Z,91.20
2018-08-03T03:54:13.770Z,91.10
2018-08-03T03:56:42.441Z,91.00
2018-08-03T03:59:10.993Z,90.90
2018-08-03T04:01:39.721Z,90.90
2018-08-03T04:04:08.353Z,90.80
2018-08-03T04:12:25.914Z,90.20
2018-08-03T04:14:54.720Z,89.90
2018-08-03T04:17:23.279Z,89.60
2018-08-03T04:19:52.138Z,89.30
2018-08-03T04:22:21.031Z,89.20
2018-08-03T04:24:49.838Z,88.90
2018-08-03T04:27:18.849Z,89.50
2018-08-03T04:29:47.536Z,88.60
2018-08-03T04:32:16.449Z,88.30
2018-08-03T04:34:45.181Z,88.00
2018-08-03T04:37:14.260Z,87.70
2018-08-03T04:39:43.238Z,87.30
2018-08-03T04:42:12.188Z,86.80
2018-08-03T04:44:41.070Z,86.30
2018-08-03T04:49:39.464Z,85.40
2018-08-03T04:52:08.615Z,84.80
2018-08-03T04:54:37.319Z,84.80
2018-08-03T04:57:06.097Z,84.10
2018-08-03T04:59:34.986Z,83.80
2018-08-03T05:02:03.911Z,83.00
2018-08-03T05:04:32.971Z,83.30
2018-08-03T05:07:01.813Z,83.20
2018-08-03T05:09:30.697Z,83.50
2018-08-03T05:11:59.495Z,84.10
2018-08-03T05:14:28.511Z,83.80
2018-08-03T05:16:58.613Z,83.70
2018-08-03T05:19:28.330Z,83.10
2018-08-03T05:21:57.423Z,82.90
2018-08-03T05:24:26.228Z,82.50
2018-08-03T05:26:55.911Z,82.60
2018-08-03T05:29:24.950Z,82.60
2018-08-03T05:31:53.834Z,82.30
2018-08-03T05:34:22.846Z,82.20
2018-08-03T05:36:51.714Z,82.00
2018-08-03T05:39:20.674Z,81.50
2018-08-03T05:41:49.698Z,81.60
2018-08-03T05:44:18.761Z,81.10
2018-08-03T05:46:47.752Z,81.50
2018-08-03T05:49:16.621Z,81.50
2018-08-03T05:51:45.746Z,81.30
2018-08-03T05:54:14.810Z,81.90
2018-08-03T05:56:43.652Z,82.30
2018-08-03T05:59:12.636Z,83.50
2018-08-03T06:01:41.955Z,84.50
2018-08-03T06:04:10.831Z,84.30
2018-08-03T06:06:39.652Z,84.80
2018-08-03T06:11:38.166Z,86.50
2018-08-03T06:14:07.729Z,87.30
2018-08-03T06:16:36.796Z,89.60
2018-08-03T06:19:06.866Z,90.10
2018-08-03T06:24:09.392Z,90.60
2018-08-03T06:26:39.239Z,90.70
2018-08-03T06:29:08.122Z,90.70
2018-08-03T06:31:37.018Z,90.50
2018-08-03T06:34:05.708Z,90.20
2018-08-03T06:36:34.738Z,89.60
2018-08-03T06:39:03.986Z,89.10
2018-08-03T06:41:32.682Z,88.20
2018-08-03T06:44:01.730Z,87.60
2018-08-03T06:46:30.472Z,87.10
2018-08-03T06:48:59.222Z,86.00
2018-08-03T06:51:28.002Z,86.20
2018-08-03T06:53:59.144Z,85.10
2018-08-03T06:56:27.980Z,85.40
2018-08-03T06:58:56.805Z,85.60
2018-08-03T07:01:25.704Z,84.70
2018-08-03T07:03:54.484Z,83.40
2018-08-03T07:06:23.718Z,82.50
2018-08-03T07:08:52.601Z,80.80
2018-08-03T07:11:21.582Z,80.60
2018-08-03T07:13:50.391Z,80.60
2018-08-03T07:16:19.149Z,80.80
2018-08-03T07:18:47.856Z,79.70
2018-08-03T07:21:18.178Z,77.80
2018-08-03T07:23:47.180Z,77.50
2018-08-03T07:26:15.935Z,77.30
2018-08-03T07:28:44.638Z,76.10
2018-08-03T07:31:13.897Z,75.20
2018-08-03T07:33:42.795Z,74.40
2018-08-03T07:36:11.993Z,74.90
2018-08-03T07:38:41.206Z,73.90
2018-08-03T07:41:09.965Z,71.90
2018-08-03T07:43:38.919Z,71.00
2018-08-03T07:46:08.581Z,70.80
2018-08-03T07:48:37.621Z,71.70
2018-08-03T07:51:06.594Z,71.40
2018-08-03T07:53:36.337Z,70.10
2018-08-03T07:56:05.137Z,70.90
2018-08-03T07:58:34.004Z,70.50
2018-08-03T08:01:03.787Z,69.70
2018-08-03T08:03:32.684Z,70.40
2018-08-03T08:06:01.698Z,69.80
2018-08-03T08:08:30.617Z,69.70
2018-08-03T08:10:59.619Z,68.70
2018-08-03T08:13:28.469Z,68.00
2018-08-03T08:15:57.300Z,67.70
2018-08-03T08:18:28.548Z,67.00
2018-08-03T08:20:57.283Z,65.50
2018-08-03T08:23:26.037Z,63.80
2018-08-03T08:26:05.114Z,64.40
2018-08-03T08:28:54.978Z,64.30
2018-08-03T08:31:25.560Z,62.90
2018-08-03T08:34:00.212Z,63.40
2018-08-03T08:36:37.001Z,63.40
2018-08-03T08:39:23.424Z,62.80
2018-08-03T08:42:13.646Z,63.10
2018-08-03T08:44:42.253Z,61.30
2018-08-03T08:47:10.778Z,61.00
2018-08-03T08:49:40.787Z,60.10
2018-08-03T08:52:10.782Z,59.00
2018-08-03T08:54:39.342Z,57.80
2018-08-03T08:57:08.065Z,58.10
2018-08-03T08:59:36.604Z,57.30
2018-08-03T09:02:05.989Z,56.20
2018-08-03T09:04:34.512Z,55.30
2018-08-03T09:07:04.430Z,53.40
2018-08-03T09:09:33.001Z,52.90
2018-08-03T09:12:01.497Z,52.30
2018-08-03T09:14:30.010Z,53.30
2018-08-03T09:16:58.473Z,52.30
2018-08-03T09:19:27.064Z,52.30
2018-08-03T09:21:55.605Z,52.50
2018-08-03T09:24:24.356Z,52.40
2018-08-03T09:29:21.079Z,51.70
2018-08-03T09:31:49.557Z,51.90
2018-08-03T09:34:18.058Z,51.50
2018-08-03T09:36:46.569Z,51.30
2018-08-03T09:41:43.268Z,52.70
2018-08-03T09:44:11.773Z,50.40
2018-08-03T09:46:40.242Z,51.60
2018-08-03T09:49:09.200Z,52.30
2018-08-03T09:51:37.749Z,52.60
2018-08-03T09:54:06.297Z,52.50
2018-08-03T09:56:34.765Z,52.30
2018-08-03T09:59:03.289Z,51.90
2018-08-03T10:01:32.561Z,52.80
2018-08-03T10:04:01.058Z,52.90
2018-08-03T10:06:29.577Z,52.70
2018-08-03T10:08:58.049Z,51.40
2018-08-03T10:11:26.578Z,51.80
2018-08-03T10:13:56.453Z,52.50
2018-08-03T10:16:24.984Z,52.20
2018-08-03T10:18:53.581Z,53.00
2018-08-03T10:21:22.069Z,53.60
2018-08-03T10:23:50.533Z,51.50
2018-08-03T10:26:19.033Z,53.30
2018-08-03T10:28:47.509Z,52.40
2018-08-03T10:31:16.033Z,52.80
2018-08-03T10:33:44.577Z,53.50
2018-08-03T10:36:13.071Z,52.30
2018-08-03T10:38:41.558Z,52.00
2018-08-03T10:41:10.085Z,51.20
2018-08-03T10:43:38.580Z,51.10
2018-08-03T10:46:07.041Z,50.70
2018-08-03T10:48:35.564Z,50.40
2018-08-03T10:51:04.062Z,50.20
2018-08-03T10:53:32.516Z,50.40
2018-08-03T10:56:01.100Z,50.10
2018-08-03T10:58:29.589Z,49.20
2018-08-03T11:03:26.329Z,49.10
2018-08-03T11:05:55.305Z,48.20
2018-08-03T11:08:24.035Z,48.00
2018-08-03T11:10:52.801Z,47.50
2018-08-03T11:13:21.452Z,46.10
2018-08-03T11:15:50.371Z,47.00
2018-08-03T11:18:19.129Z,46.00
2018-08-03T11:20:47.927Z,46.00
2018-08-03T11:23:16.609Z,45.80
2018-08-03T11:25:45.484Z,45.20
2018-08-03T11:28:14.167Z,45.40
2018-08-03T11:30:42.870Z,44.30
2018-08-03T11:33:11.751Z,44.70
2018-08-03T11:35:40.805Z,44.40
2018-08-03T11:38:09.569Z,44.00
2018-08-03T11:40:38.406Z,43.30
2018-08-03T11:43:07.218Z,42.80
2018-08-03T11:45:36.147Z,42.70
2018-08-03T11:48:05.182Z,42.40
2018-08-03T11:50:34.168Z,42.00
2018-08-03T11:53:03.112Z,41.80
2018-08-03T11:55:34.157Z,41.30
2018-08-03T11:58:03.058Z,41.00
2018-08-03T12:00:31.879Z,40.70
2018-08-03T12:03:01.025Z,39.40
2018-08-03T12:05:34.435Z,40.20
2018-08-03T12:08:09.403Z,40.00
2018-08-03T12:10:45.919Z,39.80
2018-08-03T12:42:57.974Z,38.70
2018-08-03T12:45:33.837Z,39.30
2018-08-03T12:47:55.056Z,39.00
2018-08-03T12:50:23.621Z,38.90
2018-08-03T12:52:52.134Z,39.20
2018-08-03T12:55:20.565Z,39.60
2018-08-03T12:57:49.154Z,38.80
2018-08-03T13:00:17.770Z,39.30
2018-08-03T13:02:46.217Z,39.90
2018-08-03T13:05:16.963Z,39.50
2018-08-03T13:07:46.277Z,39.60
2018-08-03T13:10:14.776Z,39.60
2018-08-03T13:12:43.277Z,39.40
2018-08-03T13:15:11.942Z,39.20
2018-08-03T13:17:40.442Z,38.80
2018-08-03T13:20:10.369Z,38.40
2018-08-03T13:22:38.850Z,38.20
2018-08-03T13:25:07.442Z,38.00
2018-08-03T13:27:35.974Z,38.50
2018-08-03T13:30:04.994Z,38.70
2018-08-03T13:32:33.459Z,38.20
2018-08-03T13:35:01.986Z,38.40
2018-08-03T13:39:58.913Z,38.40
2018-08-03T13:42:27.417Z,38.60
2018-08-03T13:44:55.901Z,39.20
2018-08-03T13:47:24.381Z,38.70
2018-08-03T13:49:52.857Z,37.60
2018-08-03T13:52:21.329Z,37.60
2018-08-03T13:54:49.878Z,38.20
2018-08-03T13:57:18.453Z,38.70
2018-08-03T13:59:46.896Z,38.20
2018-08-03T14:02:25.172Z,38.80
2018-08-03T14:04:54.313Z,38.40
2018-08-03T14:07:23.029Z,38.80
2018-08-03T14:09:51.653Z,38.60
2018-08-03T14:12:20.183Z,38.80
2018-08-03T14:14:48.693Z,37.60
2018-08-03T14:17:17.200Z,37.30
2018-08-03T14:19:45.689Z,37.40
2018-08-03T14:22:14.184Z,37.60
2018-08-03T14:24:42.666Z,37.60
2018-08-03T14:27:11.182Z,38.80
2018-08-03T14:29:39.631Z,39.40
2018-08-03T14:32:08.298Z,39.90
2018-08-03T14:34:37.024Z,39.80
2018-08-03T14:37:05.565Z,39.20
2018-08-03T14:39:34.182Z,39.20
2018-08-03T14:42:02.717Z,38.80
2018-08-03T14:46:59.361Z,38.30
2018-08-03T14:49:27.817Z,37.70
2018-08-03T14:51:56.334Z,37.70
2018-08-03T14:54:24.877Z,37.90
2018-08-03T14:56:53.370Z,37.10
2018-08-03T14:59:21.869Z,37.20
2018-08-03T15:01:50.442Z,37.40
2018-08-03T15:04:18.929Z,36.30
2018-08-03T15:06:47.381Z,36.50
2018-08-03T15:09:16.037Z,36.00
2018-08-03T15:11:44.521Z,35.90
2018-08-03T15:14:12.992Z,36.00
2018-08-03T15:16:41.488Z,35.40
2018-08-03T15:19:09.957Z,35.90
2018-08-03T15:24:07.471Z,36.30
2018-08-03T15:26:35.977Z,35.80
2018-08-03T15:29:04.535Z,36.40
2018-08-03T15:31:32.997Z,36.50
2018-08-03T15:34:01.452Z,36.20
2018-08-03T15:36:29.954Z,36.10
2018-08-03T15:38:58.522Z,36.30
2018-08-03T15:41:27.017Z,36.60
2018-08-03T15:43:55.489Z,36.80
2018-08-03T15:46:24.101Z,36.30
2018-08-03T15:48:52.654Z,35.60
2018-08-03T15:51:21.108Z,35.50
2018-08-03T15:53:49.647Z,35.30
2018-08-03T15:56:18.136Z,35.10
2018-08-03T15:58:46.659Z,35.40
2018-08-03T16:01:15.150Z,35.20
2018-08-03T16:03:43.621Z,34.70
2018-08-03T16:06:12.078Z,35.20
2018-08-03T16:08:40.674Z,34.80
2018-08-03T16:11:09.156Z,34.70
2018-08-03T16:13:37.606Z,34.40
2018-08-03T16:16:06.165Z,34.10
2018-08-03T16:18:34.610Z,33.80
2018-08-03T16:21:03.041Z,33.00
2018-08-03T16:23:31.515Z,33.50
2018-08-03T16:25:59.953Z,32.70
2018-08-03T16:28:28.417Z,31.60
2018-08-03T16:30:57.017Z,30.90
2018-08-03T16:33:25.569Z,30.60
2018-08-03T16:35:54.062Z,29.90
2018-08-03T16:38:22.629Z,29.30
2018-08-03T16:40:51.161Z,29.20
2018-08-03T16:43:19.665Z,28.90
2018-08-03T16:45:48.182Z,28.80
2018-08-03T16:48:16.669Z,28.80
2018-08-03T16:50:45.178Z,29.00
2018-08-03T16:53:13.641Z,29.00
2018-08-03T16:55:42.099Z,28.70
2018-08-03T16:58:10.570Z,29.00
2018-08-03T17:00:39.109Z,29.80
2018-08-03T17:03:07.573Z,31.20
2018-08-03T17:05:36.223Z,32.80
2018-08-03T17:08:04.757Z,33.80
2018-08-03T17:10:33.234Z,34.80
2018-08-03T17:13:01.649Z,36.90
2018-08-03T17:15:30.140Z,37.40
2018-08-03T17:17:58.597Z,38.40
2018-08-03T17:20:27.177Z,39.40
2018-08-03T17:22:55.642Z,40.20
2018-08-03T17:25:24.292Z,40.40
2018-08-03T17:27:52.720Z,40.50
2018-08-03T17:30:21.281Z,41.20
2018-08-03T17:32:49.707Z,41.80
2018-08-03T17:35:18.183Z,41.70
2018-08-03T17:37:46.701Z,41.90
2018-08-03T17:40:15.145Z,42.30
2018-08-03T17:42:43.863Z,42.70
2018-08-03T17:45:12.237Z,43.20
2018-08-03T17:47:40.681Z,43.50
2018-08-03T17:50:09.190Z,43.70
2018-08-03T17:55:05.800Z,44.20
2018-08-03T17:57:34.246Z,44.70
2018-08-03T18:00:02.764Z,44.80
2018-08-03T18:02:31.225Z,45.20
2018-08-03T18:04:59.694Z,45.30
2018-08-03T18:07:28.351Z,45.60
2018-08-03T18:09:56.781Z,45.80
2018-08-03T18:12:25.256Z,46.00
2018-08-03T18:14:53.777Z,46.30
2018-08-03T18:17:22.214Z,46.60
2018-08-03T18:19:50.673Z,46.70
2018-08-03T18:22:19.142Z,46.80
2018-08-03T18:24:47.705Z,47.40
2018-08-03T18:27:16.147Z,46.90
2018-08-03T18:29:44.621Z,46.90
2018-08-03T18:32:13.052Z,47.20
2018-08-03T18:34:41.633Z,47.40
2018-08-03T18:37:10.301Z,47.70
2018-08-03T18:39:38.737Z,47.80
2018-08-03T18:42:07.294Z,47.70
2018-08-03T18:44:35.747Z,47.70
2018-08-03T18:47:04.299Z,48.00
2018-08-03T18:49:32.702Z,48.20
2018-08-03T18:52:01.164Z,48.40
2018-08-03T18:56:57.723Z,49.00
2018-08-03T18:59:26.228Z,49.30
2018-08-03T19:01:54.874Z,49.70
2018-08-03T19:04:23.308Z,49.80
2018-08-03T19:06:51.792Z,50.00
2018-08-03T19:09:20.236Z,50.40
2018-08-03T19:11:48.822Z,50.60
2018-08-03T19:14:17.341Z,50.90
2018-08-03T19:16:45.836Z,51.30
2018-08-03T19:19:14.273Z,51.70
2018-08-03T19:21:42.836Z,52.00
2018-08-03T19:24:11.509Z,52.50
2018-08-03T19:26:39.952Z,52.60
2018-08-03T19:29:08.427Z,52.70
2018-08-03T19:34:05.004Z,52.80
2018-08-03T19:36:33.505Z,52.90
2018-08-03T19:39:01.941Z,53.60
2018-08-03T19:41:30.401Z,53.10
2018-08-03T19:43:58.892Z,53.20
2018-08-03T19:46:27.345Z,53.20
2018-08-03T19:48:55.783Z,53.30
2018-08-03T19:51:24.293Z,53.70
2018-08-03T19:53:52.763Z,54.10
2018-08-03T19:56:21.233Z,54.50
2018-08-03T20:01:18.041Z,55.20
2018-08-03T20:03:46.781Z,55.20
2018-08-03T20:06:15.477Z,55.60
2018-08-03T20:08:44.001Z,55.90
2018-08-03T20:11:12.457Z,56.00
2018-08-03T20:13:40.980Z,56.50
2018-08-03T20:16:09.413Z,57.00
2018-08-03T20:18:37.881Z,57.10
2018-08-03T20:23:34.622Z,57.20
2018-08-03T20:26:03.109Z,57.40
2018-08-03T20:28:31.969Z,57.40
2018-08-03T20:31:00.537Z,57.50
2018-08-03T20:33:29.042Z,57.70
2018-08-03T20:35:57.593Z,57.70
2018-08-03T20:38:26.113Z,58.10
2018-08-03T20:40:54.553Z,58.10
2018-08-03T20:43:24.045Z,58.40
2018-08-03T20:45:52.569Z,58.70
2018-08-03T20:48:21.257Z,58.80
2018-08-03T20:50:49.768Z,59.10
2018-08-03T20:53:18.208Z,59.20
2018-08-03T20:55:54.820Z,59.10
2018-08-03T20:58:23.362Z,59.30
2018-08-03T21:00:51.969Z,59.50
2018-08-03T21:03:20.521Z,60.20
2018-08-03T21:05:49.026Z,59.50
2018-08-03T21:08:17.479Z,59.40
2018-08-03T21:10:46.005Z,59.40
2018-08-03T21:13:14.468Z,59.80
2018-08-03T21:15:43.009Z,59.70
2018-08-03T21:18:11.480Z,59.90
2018-08-03T21:20:40.023Z,60.30
2018-08-03T21:23:08.458Z,60.70
2018-08-03T21:25:36.959Z,60.50
2018-08-03T21:28:05.461Z,60.50
2018-08-03T21:33:02.090Z,60.50
2018-08-03T21:35:30.545Z,60.80
2018-08-03T21:37:59.228Z,60.70
2018-08-03T21:40:27.738Z,60.50
2018-08-03T21:42:56.165Z,60.50
2018-08-03T21:45:24.696Z,61.30
2018-08-03T21:47:53.194Z,60.40
2018-08-03T21:50:21.639Z,60.40
2018-08-03T21:52:50.159Z,60.30
2018-08-03T21:55:18.594Z,60.00
2018-08-03T21:57:47.030Z,59.80
2018-08-03T22:00:19.397Z,59.70
2018-08-03T22:02:47.953Z,59.70
2018-08-03T22:05:16.517Z,59.40
2018-08-03T22:07:45.201Z,59.30
2018-08-03T22:10:13.732Z,59.30
2018-08-03T22:12:42.189Z,59.30
2018-08-03T22:15:10.716Z,59.30
2018-08-03T22:17:39.197Z,59.10
2018-08-03T22:20:07.689Z,59.10
2018-08-03T22:22:36.313Z,59.20
2018-08-03T22:25:05.650Z,58.90
2018-08-03T22:27:34.113Z,58.90
2018-08-03T22:30:02.613Z,58.80
2018-08-03T22:32:31.181Z,58.80
2018-08-03T22:34:59.576Z,58.70
2018-08-03T22:37:28.009Z,58.60
2018-08-03T22:39:56.488Z,58.50
2018-08-03T22:42:24.963Z,58.50
2018-08-03T22:44:53.409Z,58.50
2018-08-03T22:47:21.913Z,58.60
2018-08-03T22:49:50.394Z,58.50
2018-08-03T22:52:18.821Z,58.40
2018-08-03T22:54:47.299Z,58.30
2018-08-03T22:57:15.849Z,58.40
2018-08-03T22:59:44.325Z,58.70
2018-08-03T23:02:12.793Z,58.70
2018-08-03T23:04:41.625Z,58.80
2018-08-03T23:07:10.064Z,58.90
2018-08-03T23:09:38.577Z,59.00
2018-08-03T23:12:07.121Z,59.40
2018-08-03T23:14:35.589Z,59.70
2018-08-03T23:17:04.102Z,59.90
2018-08-03T23:19:32.561Z,60.00
2018-08-03T23:22:01.001Z,60.10
2018-08-03T23:24:29.547Z,60.20
2018-08-03T23:26:58.049Z,60.00
2018-08-03T23:29:26.628Z,59.80
2018-08-03T23:31:55.228Z,60.00
2018-08-03T23:34:23.651Z,59.80
2018-08-03T23:36:52.069Z,59.80
2018-08-03T23:39:20.541Z,60.00
2018-08-03T23:41:48.978Z,60.30
2018-08-03T23:44:17.422Z,60.60
2018-08-03T23:46:45.893Z,60.70
2018-08-03T23:49:14.315Z,60.80
2018-08-03T23:51:42.869Z,61.80
2018-08-03T23:54:11.385Z,61.10
2018-08-03T23:56:39.863Z,61.10
2018-08-03T23:59:08.321Z,61.00
